Denver, Colorado
Traffic Map
Current Weather Conditions
Denver, Colorado
Broken Clouds
Broken Clouds

Feels Like: 5°
Wind Chill: Ceiling: 6000
Heat Index: Visibility: 10mi
Dew Point: Wind: 3mph
Humidity: 100% Direction: 290° (WNW)
Pressure: 30.36in Gusts: 0mph
Raw Report DataKBKF 280558Z 29003KT 10SM BKN060 05/05 A3036 RMK AO2A SLP272 T00470047 10068 20045 51009
Traffic Incident Summary
Active as of:
Severity:
Category:
InformationThere was an issue retrieving the traffic information for this location. Please try a different location or try again shortly.
Advertisements
Track Severe Weather on mobile